sensor_id;sensor_type;location;lat;lon;timestamp;pressure;altitude;pressure_sealevel;temperature;humidity
21357;BME280;10836;53.068;18.234;2023-05-20T00:00:45;102310.22;;;10.74;100.00
21357;BME280;10836;53.068;18.234;2023-05-20T00:03:19;102309.59;;;10.72;100.00
21357;BME280;10836;53.068;18.234;2023-05-20T00:05:46;102305.34;;;10.76;100.00
21357;BME280;10836;53.068;18.234;2023-05-20T00:08:14;102311.75;;;10.70;100.00
21357;BME280;10836;53.068;18.234;2023-05-20T00:10:40;102309.47;;;10.66;100.00
21357;BME280;10836;53.068;18.234;2023-05-20T00:13:08;102312.47;;;10.77;100.00
21357;BME280;10836;53.068;18.234;2023-05-20T00:15:34;102309.88;;;10.82;100.00
21357;BME280;10836;53.068;18.234;2023-05-20T00:18:03;102299.28;;;10.74;100.00
21357;BME280;10836;53.068;18.234;2023-05-20T00:20:31;102304.75;;;10.74;100.00
21357;BME280;10836;53.068;18.234;2023-05-20T00:22:58;102303.19;;;10.66;100.00
21357;BME280;10836;53.068;18.234;2023-05-20T00:25:25;102303.19;;;10.66;100.00
21357;BME280;10836;53.068;18.234;2023-05-20T00:27:52;102300.41;;;10.54;100.00
21357;BME280;10836;53.068;18.234;2023-05-20T00:30:19;102298.69;;;10.72;100.00
21357;BME280;10836;53.068;18.234;2023-05-20T00:32:46;102291.75;;;10.57;100.00
21357;BME280;10836;53.068;18.234;2023-05-20T00:35:13;102294.97;;;10.54;100.00
21357;BME280;10836;53.068;18.234;2023-05-20T00:37:42;102297.22;;;10.57;100.00
21357;BME280;10836;53.068;18.234;2023-05-20T00:40:09;102299.28;;;10.74;100.00
21357;BME280;10836;53.068;18.234;2023-05-20T00:42:36;102292.63;;;10.81;100.00
21357;BME280;10836;53.068;18.234;2023-05-20T00:45:03;102285.50;;;10.69;100.00
21357;BME280;10836;53.068;18.234;2023-05-20T00:47:32;102293.81;;;10.74;100.00
21357;BME280;10836;53.068;18.234;2023-05-20T00:49:59;102289.28;;;10.68;100.00
21357;BME280;10836;53.068;18.234;2023-05-20T00:52:30;102289.28;;;10.68;100.00
21357;BME280;10836;53.068;18.234;2023-05-20T00:54:57;102291.69;;;10.76;100.00
21357;BME280;10836;53.068;18.234;2023-05-20T00:57:26;102292.34;;;10.59;100.00
21357;BME280;10836;53.068;18.234;2023-05-20T00:59:53;102289.75;;;10.64;100.00
21357;BME280;10836;53.068;18.234;2023-05-20T01:02:21;102290.09;;;10.56;100.00
21357;BME280;10836;53.068;18.234;2023-05-20T01:04:49;102293.66;;;10.57;100.00
21357;BME280;10836;53.068;18.234;2023-05-20T01:07:17;102286.31;;;10.69;100.00
21357;BME280;10836;53.068;18.234;2023-05-20T01:09:45;102287.63;;;10.66;100.00
21357;BME280;10836;53.068;18.234;2023-05-20T01:12:19;102281.81;;;10.75;100.00
21357;BME280;10836;53.068;18.234;2023-05-20T01:14:57;102283.47;;;10.76;100.00
21357;BME280;10836;53.068;18.234;2023-05-20T01:17:30;102286.94;;;10.83;100.00
21357;BME280;10836;53.068;18.234;2023-05-20T01:20:01;102274.09;;;10.72;100.00
21357;BME280;10836;53.068;18.234;2023-05-20T01:22:28;102276.69;;;10.66;100.00
21357;BME280;10836;53.068;18.234;2023-05-20T01:24:55;102284.66;;;10.68;100.00
21357;BME280;10836;53.068;18.234;2023-05-20T01:27:25;102285.50;;;10.69;100.00
21357;BME280;10836;53.068;18.234;2023-05-20T01:29:52;102287.22;;;10.51;100.00
21357;BME280;10836;53.068;18.234;2023-05-20T01:32:23;102279.16;;;10.56;100.00
21357;BME280;10836;53.068;18.234;2023-05-20T01:34:52;102278.09;;;10.57;100.00
21357;BME280;10836;53.068;18.234;2023-05-20T01:37:21;102276.78;;;10.60;100.00
21357;BME280;10836;53.068;18.234;2023-05-20T01:39:49;102276.22;;;10.70;100.00
21357;BME280;10836;53.068;18.234;2023-05-20T01:42:18;102278.34;;;10.68;100.00
21357;BME280;10836;53.068;18.234;2023-05-20T01:44:47;102271.13;;;10.73;100.00
21357;BME280;10836;53.068;18.234;2023-05-20T01:47:14;102269.94;;;10.69;100.00
21357;BME280;10836;53.068;18.234;2023-05-20T01:49:41;102282.03;;;10.61;100.00
21357;BME280;10836;53.068;18.234;2023-05-20T01:52:09;102278.00;;;10.64;100.00
21357;BME280;10836;53.068;18.234;2023-05-20T01:54:35;102271.22;;;10.66;100.00
21357;BME280;10836;53.068;18.234;2023-05-20T01:57:03;102273.38;;;10.76;100.00
21357;BME280;10836;53.068;18.234;2023-05-20T01:59:30;102271.34;;;10.83;100.00
21357;BME280;10836;53.068;18.234;2023-05-20T02:01:57;102272.91;;;10.68;100.00
21357;BME280;10836;53.068;18.234;2023-05-20T02:04:24;102265.41;;;10.75;100.00
21357;BME280;10836;53.068;18.234;2023-05-20T02:06:51;102270.75;;;10.70;100.00
21357;BME280;10836;53.068;18.234;2023-05-20T02:09:18;102266.84;;;10.65;100.00
21357;BME280;10836;53.068;18.234;2023-05-20T02:11:45;102272.91;;;10.68;100.00
21357;BME280;10836;53.068;18.234;2023-05-20T02:14:12;102264.34;;;10.76;100.00
21357;BME280;10836;53.068;18.234;2023-05-20T02:16:39;102278.63;;;10.78;100.00
21357;BME280;10836;53.068;18.234;2023-05-20T02:19:06;102277.53;;;10.79;100.00
21357;BME280;10836;53.068;18.234;2023-05-20T02:21:40;102273.16;;;10.78;100.00
21357;BME280;10836;53.068;18.234;2023-05-20T02:24:08;102267.44;;;10.68;100.00
21357;BME280;10836;53.068;18.234;2023-05-20T02:26:35;102271.69;;;10.63;100.00
21357;BME280;10836;53.068;18.234;2023-05-20T02:29:02;102266.84;;;10.65;100.00
21357;BME280;10836;53.068;18.234;2023-05-20T02:31:29;102264.34;;;10.64;100.00
21357;BME280;10836;53.068;18.234;2023-05-20T02:33:56;102256.84;;;10.59;100.00
21357;BME280;10836;53.068;18.234;2023-05-20T02:36:23;102257.91;;;10.58;100.00
21357;BME280;10836;53.068;18.234;2023-05-20T02:38:51;102269.56;;;10.65;100.00
21357;BME280;10836;53.068;18.234;2023-05-20T02:41:20;102263.63;;;10.69;100.00
21357;BME280;10836;53.068;18.234;2023-05-20T02:43:47;102261.97;;;10.68;100.00
21357;BME280;10836;53.068;18.234;2023-05-20T02:46:15;102266.84;;;10.65;100.00
21357;BME280;10836;53.068;18.234;2023-05-20T02:48:44;102265.53;;;10.68;100.00
21357;BME280;10836;53.068;18.234;2023-05-20T02:51:13;102260.44;;;10.72;100.00
21357;BME280;10836;53.068;18.234;2023-05-20T02:53:40;102262.19;;;10.66;100.00
21357;BME280;10836;53.068;18.234;2023-05-20T02:56:07;102257.69;;;10.72;100.00
21357;BME280;10836;53.068;18.234;2023-05-20T02:58:34;102261.97;;;10.68;100.00
21357;BME280;10836;53.068;18.234;2023-05-20T03:01:02;102263.41;;;10.70;100.00
21357;BME280;10836;53.068;18.234;2023-05-20T03:03:28;102269.78;;;10.52;100.00
21357;BME280;10836;53.068;18.234;2023-05-20T03:05:56;102266.22;;;10.63;100.00
21357;BME280;10836;53.068;18.234;2023-05-20T03:08:22;102269.31;;;10.55;100.00
21357;BME280;10836;53.068;18.234;2023-05-20T03:10:50;102266.84;;;10.65;100.00
21357;BME280;10836;53.068;18.234;2023-05-20T03:13:17;102269.09;;;10.69;100.00
21357;BME280;10836;53.068;18.234;2023-05-20T03:15:44;102266.72;;;10.60;100.00
21357;BME280;10836;53.068;18.234;2023-05-20T03:18:11;102275.72;;;10.49;100.00
21357;BME280;10836;53.068;18.234;2023-05-20T03:20:39;102275.84;;;10.54;100.00
21357;BME280;10836;53.068;18.234;2023-05-20T03:23:07;102277.38;;;10.50;100.00
21357;BME280;10836;53.068;18.234;2023-05-20T03:25:37;102281.16;;;10.49;100.00
21357;BME280;10836;53.068;18.234;2023-05-20T03:28:04;102279.03;;;10.51;100.00
21357;BME280;10836;53.068;18.234;2023-05-20T03:30:34;102272.84;;;10.44;100.00
21357;BME280;10836;53.068;18.234;2023-05-20T03:33:02;102279.63;;;10.53;100.00
21357;BME280;10836;53.068;18.234;2023-05-20T03:35:29;102278.47;;;10.61;100.00
21357;BME280;10836;53.068;18.234;2023-05-20T03:37:56;102275.97;;;10.59;100.00
21357;BME280;10836;53.068;18.234;2023-05-20T03:40:24;102283.09;;;10.60;100.00
21357;BME280;10836;53.068;18.234;2023-05-20T03:42:52;102278.81;;;10.64;100.00
21357;BME280;10836;53.068;18.234;2023-05-20T03:45:20;102278.34;;;10.68;100.00
21357;BME280;10836;53.068;18.234;2023-05-20T03:48:00;102276.94;;;10.77;100.00
21357;BME280;10836;53.068;18.234;2023-05-20T03:50:31;102282.88;;;10.74;100.00
21357;BME280;10836;53.068;18.234;2023-05-20T03:52:59;102280.16;;;10.74;100.00
21357;BME280;10836;53.068;18.234;2023-05-20T03:55:31;102288.78;;;10.59;100.00
21357;BME280;10836;53.068;18.234;2023-05-20T03:58:00;102288.81;;;10.71;100.00
21357;BME280;10836;53.068;18.234;2023-05-20T04:00:28;102283.09;;;10.60;100.00
21357;BME280;10836;53.068;18.234;2023-05-20T04:02:57;102282.41;;;10.77;100.00
21357;BME280;10836;53.068;18.234;2023-05-20T04:05:24;102287.50;;;10.73;100.00
21357;BME280;10836;53.068;18.234;2023-05-20T04:07:53;102283.47;;;10.76;100.00
21357;BME280;10836;53.068;18.234;2023-05-20T04:10:22;102284.41;;;10.70;100.00
21357;BME280;10836;53.068;18.234;2023-05-20T04:12:50;102282.41;;;10.77;100.00
21357;BME280;10836;53.068;18.234;2023-05-20T04:15:19;102286.81;;;10.78;100.00
21357;BME280;10836;53.068;18.234;2023-05-20T04:17:55;102288.94;;;10.76;100.00
21357;BME280;10836;53.068;18.234;2023-05-20T04:20:22;102296.19;;;10.82;100.00
21357;BME280;10836;53.068;18.234;2023-05-20T04:22:52;102293.22;;;10.95;100.00
21357;BME280;10836;53.068;18.234;2023-05-20T04:25:21;102290.72;;;10.82;100.00
21357;BME280;10836;53.068;18.234;2023-05-20T04:27:48;102294.75;;;10.91;100.00
21357;BME280;10836;53.068;18.234;2023-05-20T04:30:16;102297.13;;;10.99;100.00
21357;BME280;10836;53.068;18.234;2023-05-20T04:32:44;102302.38;;;11.12;100.00
21357;BME280;10836;53.068;18.234;2023-05-20T04:35:11;102295.25;;;11.11;100.00
21357;BME280;10836;53.068;18.234;2023-05-20T04:37:42;102293.69;;;11.15;100.00
21357;BME280;10836;53.068;18.234;2023-05-20T04:40:16;102296.16;;;11.28;100.00
21357;BME280;10836;53.068;18.234;2023-05-20T04:42:45;102304.03;;;11.25;100.00
21357;BME280;10836;53.068;18.234;2023-05-20T04:45:12;102299.13;;;11.27;100.00
21357;BME280;10836;53.068;18.234;2023-05-20T04:47:40;102295.81;;;11.37;100.00
21357;BME280;10836;53.068;18.234;2023-05-20T04:50:09;102291.06;;;11.32;100.00
21357;BME280;10836;53.068;18.234;2023-05-20T04:52:40;102295.22;;;11.34;100.00
21357;BME280;10836;53.068;18.234;2023-05-20T04:55:11;102291.63;;;11.46;100.00
21357;BME280;10836;53.068;18.234;2023-05-20T04:57:39;102301.63;;;11.52;100.00
21357;BME280;10836;53.068;18.234;2023-05-20T05:00:10;102284.34;;;11.63;100.00
21357;BME280;10836;53.068;18.234;2023-05-20T05:02:38;102296.84;;;11.59;100.00
21357;BME280;10836;53.068;18.234;2023-05-20T05:05:07;102293.22;;;11.70;100.00
21357;BME280;10836;53.068;18.234;2023-05-20T05:07:34;102297.38;;;11.84;100.00
21357;BME280;10836;53.068;18.234;2023-05-20T05:10:01;102288.69;;;11.87;100.00
21357;BME280;10836;53.068;18.234;2023-05-20T05:12:30;102287.03;;;11.86;100.00
21357;BME280;10836;53.068;18.234;2023-05-20T05:14:57;102291.78;;;11.91;100.00
21357;BME280;10836;53.068;18.234;2023-05-20T05:17:26;102289.28;;;11.89;100.00
21357;BME280;10836;53.068;18.234;2023-05-20T05:19:55;102299.38;;;12.01;100.00
21357;BME280;10836;53.068;18.234;2023-05-20T05:22:22;102298.38;;;12.07;100.00
21357;BME280;10836;53.068;18.234;2023-05-20T05:24:50;102292.75;;;11.85;100.00
21357;BME280;10836;53.068;18.234;2023-05-20T05:27:17;102290.06;;;11.61;100.00
21357;BME280;10836;53.068;18.234;2023-05-20T05:29:44;102286.59;;;11.66;100.00
21357;BME280;10836;53.068;18.234;2023-05-20T05:32:11;102296.38;;;11.62;100.00
21357;BME280;10836;53.068;18.234;2023-05-20T05:34:38;102291.81;;;11.79;100.00
21357;BME280;10836;53.068;18.234;2023-05-20T05:37:05;102291.53;;;11.92;100.00
21357;BME280;10836;53.068;18.234;2023-05-20T05:39:33;102288.50;;;12.06;100.00
21357;BME280;10836;53.068;18.234;2023-05-20T05:42:03;102290.59;;;12.15;100.00
21357;BME280;10836;53.068;18.234;2023-05-20T05:44:31;102290.28;;;12.28;100.00
21357;BME280;10836;53.068;18.234;2023-05-20T05:46:57;102287.44;;;12.23;100.00
21357;BME280;10836;53.068;18.234;2023-05-20T05:49:26;102288.41;;;12.01;100.00
21357;BME280;10836;53.068;18.234;2023-05-20T05:51:53;102295.22;;;12.15;100.00
21357;BME280;10836;53.068;18.234;2023-05-20T05:54:20;102289.59;;;12.05;100.00
21357;BME280;10836;53.068;18.234;2023-05-20T05:56:50;102287.72;;;12.39;100.00
21357;BME280;10836;53.068;18.234;2023-05-20T05:59:18;102294.81;;;12.51;100.00
21357;BME280;10836;53.068;18.234;2023-05-20T06:01:45;102292.41;;;12.55;100.00
21357;BME280;10836;53.068;18.234;2023-05-20T06:04:14;102295.06;;;12.66;100.00
21357;BME280;10836;53.068;18.234;2023-05-20T06:06:41;102297.88;;;12.72;100.00
21357;BME280;10836;53.068;18.234;2023-05-20T06:09:08;102306.69;;;12.74;100.00
21357;BME280;10836;53.068;18.234;2023-05-20T06:11:35;102309.69;;;12.72;100.00
21357;BME280;10836;53.068;18.234;2023-05-20T06:14:02;102298.63;;;12.50;100.00
21357;BME280;10836;53.068;18.234;2023-05-20T06:16:30;102303.44;;;12.77;100.00
21357;BME280;10836;53.068;18.234;2023-05-20T06:18:58;102292.28;;;13.00;100.00
21357;BME280;10836;53.068;18.234;2023-05-20T06:21:31;102307.59;;;12.96;100.00
21357;BME280;10836;53.068;18.234;2023-05-20T06:23:58;102298.44;;;13.07;100.00
21357;BME280;10836;53.068;18.234;2023-05-20T06:26:25;102297.38;;;13.25;100.00
21357;BME280;10836;53.068;18.234;2023-05-20T06:28:52;102298.41;;;13.41;100.00
21357;BME280;10836;53.068;18.234;2023-05-20T06:31:19;102309.50;;;13.51;100.00
21357;BME280;10836;53.068;18.234;2023-05-20T06:33:47;102302.13;;;13.73;100.00
21357;BME280;10836;53.068;18.234;2023-05-20T06:36:16;102296.28;;;13.91;100.00
21357;BME280;10836;53.068;18.234;2023-05-20T06:38:43;102294.28;;;14.09;100.00
21357;BME280;10836;53.068;18.234;2023-05-20T06:41:14;102297.56;;;14.06;100.00
21357;BME280;10836;53.068;18.234;2023-05-20T06:43:41;102294.09;;;13.93;100.00
21357;BME280;10836;53.068;18.234;2023-05-20T06:46:15;102301.84;;;13.96;100.00
21357;BME280;10836;53.068;18.234;2023-05-20T06:48:47;102302.88;;;13.90;100.00
21357;BME280;10836;53.068;18.234;2023-05-20T06:51:15;102293.78;;;14.12;100.00
21357;BME280;10836;53.068;18.234;2023-05-20T06:53:45;102302.28;;;13.88;100.00
21357;BME280;10836;53.068;18.234;2023-05-20T06:56:13;102299.94;;;13.53;100.00
21357;BME280;10836;53.068;18.234;2023-05-20T06:58:40;102305.56;;;13.85;100.00
21357;BME280;10836;53.068;18.234;2023-05-20T07:01:07;102297.50;;;13.57;100.00
21357;BME280;10836;53.068;18.234;2023-05-20T07:03:34;102301.41;;;13.61;100.00
21357;BME280;10836;53.068;18.234;2023-05-20T07:06:01;102293.94;;;13.78;100.00
21357;BME280;10836;53.068;18.234;2023-05-20T07:08:30;102292.00;;;14.01;100.00
21357;BME280;10836;53.068;18.234;2023-05-20T07:10:57;102303.28;;;13.77;100.00
21357;BME280;10836;53.068;18.234;2023-05-20T07:13:24;102287.44;;;13.84;100.00
21357;BME280;10836;53.068;18.234;2023-05-20T07:15:52;102284.63;;;14.33;100.00
21357;BME280;10836;53.068;18.234;2023-05-20T07:18:19;102282.59;;;14.45;100.00
21357;BME280;10836;53.068;18.234;2023-05-20T07:20:51;102286.56;;;14.59;100.00
21357;BME280;10836;53.068;18.234;2023-05-20T07:23:51;102283.47;;;14.88;100.00
21357;BME280;10836;53.068;18.234;2023-05-20T07:26:18;102284.75;;;14.70;100.00
21357;BME280;10836;53.068;18.234;2023-05-20T07:28:46;102275.69;;;15.12;100.00
21357;BME280;10836;53.068;18.234;2023-05-20T07:31:13;102274.22;;;14.99;99.78
21357;BME280;10836;53.068;18.234;2023-05-20T07:33:43;102278.16;;;15.13;100.00
21357;BME280;10836;53.068;18.234;2023-05-20T07:36:11;102277.72;;;15.37;100.00
21357;BME280;10836;53.068;18.234;2023-05-20T07:38:40;102271.56;;;15.72;95.37
21357;BME280;10836;53.068;18.234;2023-05-20T07:41:22;102273.38;;;15.46;97.76
21357;BME280;10836;53.068;18.234;2023-05-20T07:43:50;102266.88;;;15.67;97.90
21357;BME280;10836;53.068;18.234;2023-05-20T07:46:17;102270.28;;;15.89;95.70
21357;BME280;10836;53.068;18.234;2023-05-20T07:48:46;102269.19;;;15.95;98.05
21357;BME280;10836;53.068;18.234;2023-05-20T07:51:14;102273.53;;;15.81;95.26
21357;BME280;10836;53.068;18.234;2023-05-20T07:53:41;102266.44;;;16.11;97.18
21357;BME280;10836;53.068;18.234;2023-05-20T07:56:08;102259.03;;;16.21;93.66
21357;BME280;10836;53.068;18.234;2023-05-20T07:58:42;102259.88;;;16.37;93.21
21357;BME280;10836;53.068;18.234;2023-05-20T08:01:09;102259.91;;;16.68;95.54
21357;BME280;10836;53.068;18.234;2023-05-20T08:03:37;102259.84;;;17.03;94.10
21357;BME280;10836;53.068;18.234;2023-05-20T08:06:09;102257.13;;;16.88;89.58
21357;BME280;10836;53.068;18.234;2023-05-20T08:08:36;102249.88;;;17.22;91.84
21357;BME280;10836;53.068;18.234;2023-05-20T08:11:11;102254.34;;;16.98;91.31
21357;BME280;10836;53.068;18.234;2023-05-20T08:13:39;102258.34;;;17.41;88.71
21357;BME280;10836;53.068;18.234;2023-05-20T08:16:06;102259.28;;;17.11;92.31
21357;BME280;10836;53.068;18.234;2023-05-20T08:18:34;102253.00;;;17.75;91.06
21357;BME280;10836;53.068;18.234;2023-05-20T08:21:05;102255.91;;;18.38;85.67
21357;BME280;10836;53.068;18.234;2023-05-20T08:23:35;102247.66;;;17.89;86.89
21357;BME280;10836;53.068;18.234;2023-05-20T08:26:06;102249.09;;;17.76;87.42
21357;BME280;10836;53.068;18.234;2023-05-20T08:28:37;102238.06;;;18.54;80.97
21357;BME280;10836;53.068;18.234;2023-05-20T08:31:06;102240.03;;;18.83;78.74
21357;BME280;10836;53.068;18.234;2023-05-20T08:33:33;102243.31;;;18.90;80.18
21357;BME280;10836;53.068;18.234;2023-05-20T08:36:00;102234.31;;;19.27;76.46
21357;BME280;10836;53.068;18.234;2023-05-20T08:38:28;102241.56;;;19.89;71.32
21357;BME280;10836;53.068;18.234;2023-05-20T08:40:56;102239.56;;;20.46;69.03
21357;BME280;10836;53.068;18.234;2023-05-20T08:43:25;102234.50;;;20.81;65.43
21357;BME280;10836;53.068;18.234;2023-05-20T08:45:52;102235.06;;;20.50;68.80
21357;BME280;10836;53.068;18.234;2023-05-20T08:48:24;102227.84;;;20.82;65.13
21357;BME280;10836;53.068;18.234;2023-05-20T08:50:52;102229.69;;;20.40;63.01
21357;BME280;10836;53.068;18.234;2023-05-20T08:53:21;102213.56;;;20.23;61.71
21357;BME280;10836;53.068;18.234;2023-05-20T08:55:56;102221.81;;;19.30;64.79
21357;BME280;10836;53.068;18.234;2023-05-20T08:58:28;102213.00;;;19.70;68.13
21357;BME280;10836;53.068;18.234;2023-05-20T09:00:55;102207.13;;;20.28;67.18
21357;BME280;10836;53.068;18.234;2023-05-20T09:03:22;102212.72;;;20.88;65.65
21357;BME280;10836;53.068;18.234;2023-05-20T09:06:05;102209.88;;;21.07;62.38
21357;BME280;10836;53.068;18.234;2023-05-20T09:08:33;102208.44;;;21.50;59.41
21357;BME280;10836;53.068;18.234;2023-05-20T09:11:00;102209.44;;;21.68;61.38
21357;BME280;10836;53.068;18.234;2023-05-20T09:13:31;102213.44;;;22.12;59.07
21357;BME280;10836;53.068;18.234;2023-05-20T09:15:59;102205.06;;;22.48;56.31
21357;BME280;10836;53.068;18.234;2023-05-20T09:18:28;102198.59;;;22.92;59.76
21357;BME280;10836;53.068;18.234;2023-05-20T09:20:55;102202.59;;;22.77;58.56
21357;BME280;10836;53.068;18.234;2023-05-20T09:23:22;102203.59;;;23.12;53.66
21357;BME280;10836;53.068;18.234;2023-05-20T09:25:51;102200.19;;;23.24;56.92
21357;BME280;10836;53.068;18.234;2023-05-20T09:28:21;102207.84;;;23.58;53.80
21357;BME280;10836;53.068;18.234;2023-05-20T09:30:49;102195.13;;;23.35;56.02
21357;BME280;10836;53.068;18.234;2023-05-20T09:33:17;102194.91;;;23.97;50.52
21357;BME280;10836;53.068;18.234;2023-05-20T09:35:44;102200.00;;;24.20;52.08
21357;BME280;10836;53.068;18.234;2023-05-20T09:38:13;102189.66;;;24.04;52.19
21357;BME280;10836;53.068;18.234;2023-05-20T09:40:42;102186.78;;;23.52;51.77
21357;BME280;10836;53.068;18.234;2023-05-20T09:43:11;102189.53;;;23.26;50.92
21357;BME280;10836;53.068;18.234;2023-05-20T09:45:40;102193.31;;;22.82;52.28
21357;BME280;10836;53.068;18.234;2023-05-20T09:48:08;102187.59;;;22.65;53.03
21357;BME280;10836;53.068;18.234;2023-05-20T09:50:37;102190.84;;;22.05;54.81
21357;BME280;10836;53.068;18.234;2023-05-20T09:53:06;102198.25;;;21.96;54.65
21357;BME280;10836;53.068;18.234;2023-05-20T09:55:34;102197.69;;;21.71;54.56
21357;BME280;10836;53.068;18.234;2023-05-20T09:58:02;102186.16;;;22.67;52.73
21357;BME280;10836;53.068;18.234;2023-05-20T10:00:29;102182.78;;;22.48;51.48
21357;BME280;10836;53.068;18.234;2023-05-20T10:02:58;102178.34;;;23.17;50.71
21357;BME280;10836;53.068;18.234;2023-05-20T10:05:31;102185.50;;;23.01;51.53
21357;BME280;10836;53.068;18.234;2023-05-20T10:08:24;102195.53;;;23.11;50.85
21357;BME280;10836;53.068;18.234;2023-05-20T10:17:03;102185.06;;;22.01;53.70
21357;BME280;10836;53.068;18.234;2023-05-20T10:19:35;102183.03;;;21.79;54.37
21357;BME280;10836;53.068;18.234;2023-05-20T10:22:07;102181.56;;;21.60;55.25
21357;BME280;10836;53.068;18.234;2023-05-20T10:24:41;102175.06;;;22.22;55.15
21357;BME280;10836;53.068;18.234;2023-05-20T10:27:11;102175.31;;;22.12;54.61
21357;BME280;10836;53.068;18.234;2023-05-20T10:29:50;102159.44;;;22.66;53.34
21357;BME280;10836;53.068;18.234;2023-05-20T10:32:28;102160.13;;;22.72;53.77
21357;BME280;10836;53.068;18.234;2023-05-20T10:34:59;102160.25;;;22.89;52.64
21357;BME280;10836;53.068;18.234;2023-05-20T10:37:29;102157.72;;;23.18;51.05
21357;BME280;10836;53.068;18.234;2023-05-20T10:40:24;102160.06;;;22.85;50.73
21357;BME280;10836;53.068;18.234;2023-05-20T10:42:51;102149.44;;;22.96;51.29
21357;BME280;10836;53.068;18.234;2023-05-20T10:45:26;102156.66;;;22.97;51.05
21357;BME280;10836;53.068;18.234;2023-05-20T10:47:54;102152.72;;;23.55;49.12
21357;BME280;10836;53.068;18.234;2023-05-20T10:50:33;102144.16;;;24.20;48.58
21357;BME280;10836;53.068;18.234;2023-05-20T10:53:05;102141.50;;;24.41;51.05
21357;BME280;10836;53.068;18.234;2023-05-20T10:55:40;102151.31;;;24.65;47.42
21357;BME280;10836;53.068;18.234;2023-05-20T10:58:08;102154.00;;;24.82;46.74
21357;BME280;10836;53.068;18.234;2023-05-20T11:00:36;102143.19;;;22.82;48.98
21357;BME280;10836;53.068;18.234;2023-05-20T11:03:04;102151.00;;;23.28;55.58
21357;BME280;10836;53.068;18.234;2023-05-20T11:05:32;102144.34;;;23.55;51.41
21357;BME280;10836;53.068;18.234;2023-05-20T11:08:03;102138.09;;;24.27;50.91
21357;BME280;10836;53.068;18.234;2023-05-20T11:10:50;102135.78;;;23.43;47.79
21357;BME280;10836;53.068;18.234;2023-05-20T11:13:17;102132.69;;;24.13;51.98
21357;BME280;10836;53.068;18.234;2023-05-20T11:15:44;102130.19;;;24.38;47.73
21357;BME280;10836;53.068;18.234;2023-05-20T11:18:11;102131.44;;;24.58;47.56
21357;BME280;10836;53.068;18.234;2023-05-20T11:20:41;102130.47;;;24.53;47.24
21357;BME280;10836;53.068;18.234;2023-05-20T11:23:13;102126.34;;;23.78;48.57
21357;BME280;10836;53.068;18.234;2023-05-20T11:25:41;102128.25;;;23.52;49.08
21357;BME280;10836;53.068;18.234;2023-05-20T11:28:12;102140.28;;;23.70;49.73
21357;BME280;10836;53.068;18.234;2023-05-20T11:30:41;102129.72;;;24.10;49.62
21357;BME280;10836;53.068;18.234;2023-05-20T11:33:11;102127.09;;;24.13;51.32
21357;BME280;10836;53.068;18.234;2023-05-20T11:35:45;102122.97;;;24.28;50.40
21357;BME280;10836;53.068;18.234;2023-05-20T11:38:12;102121.09;;;24.96;50.39
21357;BME280;10836;53.068;18.234;2023-05-20T11:43:16;102118.03;;;25.60;45.83
21357;BME280;10836;53.068;18.234;2023-05-20T11:45:45;102114.47;;;23.99;47.99
21357;BME280;10836;53.068;18.234;2023-05-20T11:48:12;102113.94;;;24.78;48.42
21357;BME280;10836;53.068;18.234;2023-05-20T11:50:44;102122.00;;;24.24;46.92
21357;BME280;10836;53.068;18.234;2023-05-20T11:53:16;102117.09;;;24.04;47.93
21357;BME280;10836;53.068;18.234;2023-05-20T11:55:49;102114.56;;;24.45;49.16
21357;BME280;10836;53.068;18.234;2023-05-20T11:58:21;102123.09;;;24.87;49.01
21357;BME280;10836;53.068;18.234;2023-05-20T12:00:49;102114.59;;;24.75;47.67
21357;BME280;10836;53.068;18.234;2023-05-20T12:03:24;102113.81;;;25.33;47.02
21357;BME280;10836;53.068;18.234;2023-05-20T12:05:52;102114.03;;;25.19;46.75
21357;BME280;10836;53.068;18.234;2023-05-20T12:08:19;102108.63;;;25.85;46.08
21357;BME280;10836;53.068;18.234;2023-05-20T12:10:46;102109.94;;;26.00;43.80
21357;BME280;10836;53.068;18.234;2023-05-20T12:13:13;102098.56;;;26.50;46.86
21357;BME280;10836;53.068;18.234;2023-05-20T12:15:40;102106.13;;;25.22;47.62
21357;BME280;10836;53.068;18.234;2023-05-20T12:18:07;102093.16;;;24.96;46.47
21357;BME280;10836;53.068;18.234;2023-05-20T12:20:34;102100.91;;;25.82;47.99
21357;BME280;10836;53.068;18.234;2023-05-20T12:23:03;102090.84;;;24.98;46.35
21357;BME280;10836;53.068;18.234;2023-05-20T12:25:30;102098.44;;;24.89;46.71
21357;BME280;10836;53.068;18.234;2023-05-20T12:27:58;102097.06;;;24.02;48.22
21357;BME280;10836;53.068;18.234;2023-05-20T12:30:25;102097.94;;;24.58;48.35
21357;BME280;10836;53.068;18.234;2023-05-20T12:32:51;102096.13;;;24.62;50.11
21357;BME280;10836;53.068;18.234;2023-05-20T12:35:24;102092.34;;;24.58;49.20
21357;BME280;10836;53.068;18.234;2023-05-20T12:37:51;102095.63;;;24.60;47.76
21357;BME280;10836;53.068;18.234;2023-05-20T12:40:19;102083.00;;;24.83;49.19
21357;BME280;10836;53.068;18.234;2023-05-20T12:42:45;102072.50;;;24.80;48.03
21357;BME280;10836;53.068;18.234;2023-05-20T12:45:12;102077.22;;;25.17;47.06
21357;BME280;10836;53.068;18.234;2023-05-20T12:47:39;102076.72;;;25.45;48.40
21357;BME280;10836;53.068;18.234;2023-05-20T12:50:06;102063.66;;;25.91;46.91